FAB2019 SBFI-SBCG
Flight info
| Callsign | FAB2019 |
|---|---|
| Flight time | 1h 25m |
| Altitude | FL160 |
| Route | SBFI UPORU FIGOS SBCG |
| Aircraft | E120/M-VD/A |
Departure
| Time | 2026-04-30 10:47 |
|---|---|
| Airport | Cataratas International Airport (SBFI) |
Arrival
| Time | 2026-04-30 12:13 |
|---|---|
| Airport | Campo Grande Airport (SBCG) |
| Time | Latitude | Longitude | Altitude | Speed | Heading |
|---|---|---|---|---|---|
| 2026-04-30 10:41 | -25.59598 | -54.49017 | 791 ft | 0 kts | 220° |
| 2026-04-30 10:43 | -25.59588 | -54.49008 | 791 ft | 7 kts | 32° |
| 2026-04-30 10:43 | -25.59518 | -54.48946 | 791 ft | 0 kts | 39° |
| 2026-04-30 10:44 | -25.59490 | -54.48923 | 791 ft | 8 kts | 20° |
| 2026-04-30 10:44 | -25.59447 | -54.48933 | 791 ft | 6 kts | 321° |
| 2026-04-30 10:45 | -25.59359 | -54.49035 | 791 ft | 36 kts | 311° |
| 2026-04-30 10:45 | -25.59179 | -54.49260 | 791 ft | 36 kts | 311° |
| 2026-04-30 10:45 | -25.59025 | -54.49454 | 791 ft | 30 kts | 311° |
| 2026-04-30 10:45 | -25.58999 | -54.49487 | 791 ft | 0 kts | 132° |
| 2026-04-30 10:46 | -25.59006 | -54.49479 | 791 ft | 2 kts | 132° |
| 2026-04-30 10:46 | -25.59078 | -54.49390 | 791 ft | 67 kts | 131° |
| 2026-04-30 10:46 | -25.59656 | -54.48657 | 852 ft | 164 kts | 131° |
| 2026-04-30 10:47 | -25.60482 | -54.47608 | 1068 ft | 206 kts | 131° |
| 2026-04-30 10:47 | -25.61409 | -54.46313 | 1341 ft | 216 kts | 119° |
| 2026-04-30 10:47 | -25.61711 | -54.44746 | 1700 ft | 211 kts | 86° |
| 2026-04-30 10:47 | -25.61225 | -54.43195 | 2100 ft | 219 kts | 60° |
| 2026-04-30 10:48 | -25.60329 | -54.41820 | 2487 ft | 222 kts | 51° |
| 2026-04-30 10:48 | -25.59326 | -54.40519 | 2863 ft | 223 kts | 49° |
| 2026-04-30 10:48 | -25.58306 | -54.39225 | 3239 ft | 224 kts | 49° |
| 2026-04-30 10:48 | -25.57289 | -54.37909 | 3614 ft | 226 kts | 50° |
| 2026-04-30 10:49 | -25.56284 | -54.36572 | 3990 ft | 227 kts | 50° |
| 2026-04-30 10:49 | -25.55288 | -54.35213 | 4366 ft | 228 kts | 51° |
| 2026-04-30 10:49 | -25.54300 | -54.33838 | 4742 ft | 229 kts | 50° |
| 2026-04-30 10:49 | -25.53315 | -54.32451 | 5115 ft | 230 kts | 50° |
| 2026-04-30 10:50 | -25.52321 | -54.31034 | 5532 ft | 238 kts | 49° |
| 2026-04-30 10:50 | -25.51643 | -54.30069 | 5727 ft | 237 kts | 49° |
| 2026-04-30 10:50 | -25.50323 | -54.28178 | 6197 ft | 235 kts | 49° |
| 2026-04-30 10:50 | -25.49649 | -54.27217 | 6449 ft | 240 kts | 49° |
| 2026-04-30 10:51 | -25.48271 | -54.25251 | 6950 ft | 245 kts | 49° |
| 2026-04-30 10:51 | -25.47222 | -54.23749 | 7328 ft | 249 kts | 49° |
| 2026-04-30 10:51 | -25.46160 | -54.22228 | 7705 ft | 252 kts | 49° |
| 2026-04-30 10:51 | -25.45088 | -54.20690 | 8082 ft | 254 kts | 49° |
| 2026-04-30 10:52 | -25.44809 | -54.20289 | 8179 ft | 254 kts | 49° |
| 2026-04-30 10:52 | -25.44195 | -54.19408 | 8393 ft | 256 kts | 49° |
| 2026-04-30 10:53 | -25.43108 | -54.17849 | 8769 ft | 257 kts | 49° |
| 2026-04-30 10:53 | -25.42013 | -54.16277 | 9145 ft | 259 kts | 49° |
| 2026-04-30 10:53 | -25.40913 | -54.14698 | 9520 ft | 261 kts | 49° |
| 2026-04-30 10:53 | -25.39806 | -54.13109 | 9895 ft | 262 kts | 49° |
| 2026-04-30 10:54 | -25.38690 | -54.11508 | 10271 ft | 264 kts | 49° |
| 2026-04-30 10:54 | -25.37568 | -54.09901 | 10647 ft | 265 kts | 49° |
| 2026-04-30 10:54 | -25.36441 | -54.08285 | 11022 ft | 267 kts | 49° |
| 2026-04-30 10:54 | -25.35307 | -54.06662 | 11372 ft | 267 kts | 50° |
| 2026-04-30 10:55 | -25.34171 | -54.05031 | 11766 ft | 270 kts | 49° |
| 2026-04-30 10:55 | -25.33024 | -54.03389 | 12141 ft | 271 kts | 49° |
| 2026-04-30 10:55 | -25.32256 | -54.02289 | 12391 ft | 272 kts | 49° |
| 2026-04-30 10:55 | -25.30710 | -54.00078 | 12891 ft | 274 kts | 49° |
| 2026-04-30 10:56 | -25.29933 | -53.98967 | 13142 ft | 275 kts | 49° |
| 2026-04-30 10:56 | -25.28369 | -53.96732 | 13642 ft | 277 kts | 49° |
| 2026-04-30 10:56 | -25.27584 | -53.95610 | 13888 ft | 278 kts | 49° |
| 2026-04-30 10:56 | -25.26006 | -53.93355 | 14393 ft | 280 kts | 49° |
| 2026-04-30 10:57 | -25.24812 | -53.91649 | 14769 ft | 282 kts | 49° |
| 2026-04-30 10:57 | -25.23440 | -53.90137 | 15137 ft | 278 kts | 30° |
| 2026-04-30 10:57 | -25.22321 | -53.89461 | 15395 ft | 275 kts | 20° |
| 2026-04-30 10:57 | -25.19905 | -53.88580 | 15833 ft | 278 kts | 9° |
| 2026-04-30 10:58 | -25.17999 | -53.88129 | 15956 ft | 283 kts | 6° |
| 2026-04-30 10:58 | -25.16710 | -53.87884 | 15992 ft | 283 kts | 4° |
| 2026-04-30 10:58 | -25.14774 | -53.87568 | 15999 ft | 281 kts | 3° |
| 2026-04-30 10:58 | -25.12843 | -53.87289 | 16000 ft | 280 kts | 2° |
| 2026-04-30 10:59 | -25.10917 | -53.87034 | 16000 ft | 279 kts | 2° |
| 2026-04-30 10:59 | -25.08356 | -53.86714 | 16000 ft | 278 kts | 1° |
| 2026-04-30 10:59 | -25.07076 | -53.86559 | 16000 ft | 278 kts | 1° |
| 2026-04-30 10:59 | -25.04520 | -53.86259 | 16000 ft | 278 kts | 1° |
| 2026-04-30 11:00 | -25.02604 | -53.86038 | 16000 ft | 277 kts | 1° |
| 2026-04-30 11:00 | -25.01327 | -53.85892 | 16000 ft | 277 kts | 1° |
| 2026-04-30 11:00 | -24.99411 | -53.85675 | 16000 ft | 277 kts | 1° |
| 2026-04-30 11:00 | -24.96860 | -53.85388 | 16000 ft | 277 kts | 1° |
| 2026-04-30 11:01 | -24.95583 | -53.85245 | 16000 ft | 277 kts | 1° |
| 2026-04-30 11:01 | -24.93669 | -53.85032 | 16000 ft | 277 kts | 1° |
| 2026-04-30 11:01 | -24.91755 | -53.84819 | 16000 ft | 277 kts | 1° |
| 2026-04-30 11:01 | -24.89842 | -53.84607 | 16000 ft | 277 kts | 1° |
| 2026-04-30 11:02 | -24.87290 | -53.84325 | 16000 ft | 277 kts | 1° |
| 2026-04-30 11:02 | -24.86014 | -53.84183 | 16000 ft | 277 kts | 1° |
| 2026-04-30 11:02 | -24.84101 | -53.83972 | 16000 ft | 277 kts | 1° |
| 2026-04-30 11:02 | -24.81550 | -53.83690 | 16000 ft | 277 kts | 1° |
| 2026-04-30 11:03 | -24.80274 | -53.83550 | 16000 ft | 277 kts | 1° |
| 2026-04-30 11:03 | -24.78361 | -53.83339 | 16000 ft | 277 kts | 1° |
| 2026-04-30 11:03 | -24.76447 | -53.83128 | 16000 ft | 277 kts | 1° |
| 2026-04-30 11:04 | -24.72620 | -53.82706 | 16000 ft | 277 kts | 1° |
| 2026-04-30 11:04 | -24.70707 | -53.82496 | 16000 ft | 277 kts | 1° |
| 2026-04-30 11:04 | -24.68793 | -53.82285 | 16000 ft | 277 kts | 1° |
| 2026-04-30 11:04 | -24.66879 | -53.82075 | 16000 ft | 277 kts | 1° |
| 2026-04-30 11:05 | -24.64966 | -53.81864 | 16000 ft | 277 kts | 1° |
| 2026-04-30 11:05 | -24.63052 | -53.81654 | 16000 ft | 277 kts | 1° |
| 2026-04-30 11:05 | -24.61138 | -53.81444 | 16000 ft | 277 kts | 1° |
| 2026-04-30 11:05 | -24.58587 | -53.81164 | 16000 ft | 277 kts | 1° |
| 2026-04-30 11:06 | -24.57312 | -53.81024 | 16000 ft | 277 kts | 1° |
| 2026-04-30 11:06 | -24.55398 | -53.80814 | 16000 ft | 277 kts | 1° |
| 2026-04-30 11:06 | -24.53484 | -53.80603 | 16000 ft | 277 kts | 1° |
| 2026-04-30 11:06 | -24.51572 | -53.80394 | 16000 ft | 277 kts | 1° |
| 2026-04-30 11:07 | -24.49658 | -53.80184 | 16000 ft | 277 kts | 1° |
| 2026-04-30 11:07 | -24.47745 | -53.79974 | 16000 ft | 277 kts | 1° |
| 2026-04-30 11:07 | -24.45831 | -53.79764 | 16000 ft | 277 kts | 1° |
| 2026-04-30 11:07 | -24.43918 | -53.79555 | 16000 ft | 277 kts | 1° |
| 2026-04-30 11:08 | -24.42004 | -53.79345 | 16000 ft | 277 kts | 1° |
| 2026-04-30 11:08 | -24.39453 | -53.79066 | 16000 ft | 277 kts | 1° |
| 2026-04-30 11:08 | -24.38177 | -53.78926 | 16000 ft | 277 kts | 1° |
| 2026-04-30 11:08 | -24.36263 | -53.78717 | 16000 ft | 277 kts | 1° |
| 2026-04-30 11:09 | -24.34350 | -53.78507 | 16000 ft | 277 kts | 1° |
| 2026-04-30 11:09 | -24.32437 | -53.78298 | 16000 ft | 277 kts | 1° |
| 2026-04-30 11:09 | -24.30522 | -53.78089 | 16000 ft | 277 kts | 1° |
| 2026-04-30 11:09 | -24.28609 | -53.77880 | 16000 ft | 277 kts | 1° |
| 2026-04-30 11:10 | -24.26696 | -53.77671 | 16000 ft | 277 kts | 1° |
| 2026-04-30 11:10 | -24.24782 | -53.77462 | 16000 ft | 277 kts | 1° |
| 2026-04-30 11:10 | -24.22869 | -53.77253 | 16000 ft | 277 kts | 1° |
| 2026-04-30 11:10 | -24.20955 | -53.77044 | 16000 ft | 277 kts | 1° |
| 2026-04-30 11:11 | -24.18404 | -53.76765 | 16000 ft | 277 kts | 1° |
| 2026-04-30 11:11 | -24.17127 | -53.76626 | 16000 ft | 277 kts | 1° |
| 2026-04-30 11:11 | -24.15214 | -53.76417 | 16000 ft | 277 kts | 1° |
| 2026-04-30 11:11 | -24.13300 | -53.76209 | 16000 ft | 277 kts | 1° |
| 2026-04-30 11:12 | -24.11388 | -53.76000 | 16000 ft | 277 kts | 1° |
| 2026-04-30 11:12 | -24.08836 | -53.75722 | 16000 ft | 277 kts | 1° |
| 2026-04-30 11:12 | -24.07561 | -53.75583 | 16000 ft | 277 kts | 1° |
| 2026-04-30 11:12 | -24.05647 | -53.75375 | 16000 ft | 277 kts | 1° |
| 2026-04-30 11:13 | -24.03733 | -53.75166 | 16000 ft | 277 kts | 1° |
| 2026-04-30 11:13 | -24.01819 | -53.74958 | 16000 ft | 277 kts | 1° |
| 2026-04-30 11:13 | -23.99907 | -53.74750 | 16000 ft | 277 kts | 1° |
| 2026-04-30 11:13 | -23.97993 | -53.74542 | 16000 ft | 277 kts | 1° |
| 2026-04-30 11:14 | -23.96080 | -53.74334 | 16000 ft | 277 kts | 1° |
| 2026-04-30 11:14 | -23.94166 | -53.74126 | 16000 ft | 277 kts | 1° |
| 2026-04-30 11:14 | -23.92254 | -53.73918 | 16000 ft | 277 kts | 1° |
| 2026-04-30 11:14 | -23.90339 | -53.73710 | 16000 ft | 277 kts | 1° |
| 2026-04-30 11:15 | -23.88425 | -53.73502 | 16000 ft | 277 kts | 1° |
| 2026-04-30 11:15 | -23.86512 | -53.73294 | 16000 ft | 277 kts | 1° |
| 2026-04-30 11:15 | -23.84598 | -53.73086 | 16000 ft | 277 kts | 1° |
| 2026-04-30 11:15 | -23.82684 | -53.72879 | 16000 ft | 277 kts | 1° |
| 2026-04-30 11:16 | -23.80772 | -53.72671 | 16000 ft | 277 kts | 1° |
| 2026-04-30 11:16 | -23.78859 | -53.72464 | 16000 ft | 277 kts | 1° |
| 2026-04-30 11:16 | -23.76945 | -53.72256 | 16000 ft | 277 kts | 1° |
| 2026-04-30 11:16 | -23.75030 | -53.72049 | 16000 ft | 277 kts | 1° |
| 2026-04-30 11:17 | -23.73117 | -53.71842 | 16000 ft | 277 kts | 1° |
| 2026-04-30 11:17 | -23.71203 | -53.71634 | 16000 ft | 277 kts | 1° |
| 2026-04-30 11:17 | -23.69291 | -53.71427 | 16000 ft | 277 kts | 1° |
| 2026-04-30 11:17 | -23.67377 | -53.71220 | 16000 ft | 277 kts | 1° |
| 2026-04-30 11:18 | -23.64826 | -53.70944 | 16000 ft | 277 kts | 1° |
| 2026-04-30 11:18 | -23.61636 | -53.70599 | 16000 ft | 277 kts | 1° |
| 2026-04-30 11:18 | -23.59723 | -53.70392 | 16000 ft | 277 kts | 1° |
| 2026-04-30 11:19 | -23.57809 | -53.70185 | 16000 ft | 277 kts | 1° |
| 2026-04-30 11:19 | -23.55258 | -53.69909 | 16000 ft | 277 kts | 1° |
| 2026-04-30 11:19 | -23.53982 | -53.69771 | 16000 ft | 277 kts | 1° |
| 2026-04-30 11:19 | -23.52069 | -53.69565 | 16000 ft | 277 kts | 1° |
| 2026-04-30 11:20 | -23.50155 | -53.69358 | 16000 ft | 277 kts | 1° |
| 2026-04-30 11:20 | -23.48242 | -53.69152 | 16000 ft | 277 kts | 1° |
| 2026-04-30 11:20 | -23.46328 | -53.68945 | 16000 ft | 277 kts | 1° |
| 2026-04-30 11:20 | -23.44415 | -53.68739 | 16000 ft | 277 kts | 1° |
| 2026-04-30 11:21 | -23.42502 | -53.68532 | 16000 ft | 277 kts | 1° |
| 2026-04-30 11:21 | -23.40588 | -53.68326 | 16000 ft | 277 kts | 1° |
| 2026-04-30 11:21 | -23.38675 | -53.68120 | 16000 ft | 277 kts | 1° |
| 2026-04-30 11:21 | -23.36761 | -53.67914 | 16000 ft | 277 kts | 1° |
| 2026-04-30 11:22 | -23.34848 | -53.67707 | 16000 ft | 277 kts | 1° |
| 2026-04-30 11:22 | -23.32933 | -53.67501 | 16000 ft | 277 kts | 1° |
| 2026-04-30 11:22 | -23.31020 | -53.67295 | 16000 ft | 277 kts | 1° |
| 2026-04-30 11:22 | -23.28468 | -53.67021 | 16000 ft | 277 kts | 1° |
| 2026-04-30 11:23 | -23.27193 | -53.66883 | 16000 ft | 277 kts | 1° |
| 2026-04-30 11:23 | -23.25279 | -53.66678 | 16000 ft | 277 kts | 1° |
| 2026-04-30 11:23 | -23.20815 | -53.66198 | 16000 ft | 277 kts | 1° |
| 2026-04-30 11:24 | -23.19539 | -53.66060 | 16000 ft | 277 kts | 1° |
| 2026-04-30 11:24 | -23.17626 | -53.65855 | 16000 ft | 277 kts | 1° |
| 2026-04-30 11:24 | -23.15712 | -53.65649 | 16000 ft | 277 kts | 1° |
| 2026-04-30 11:25 | -23.11886 | -53.65239 | 16000 ft | 277 kts | 1° |
| 2026-04-30 11:25 | -23.09973 | -53.65033 | 16000 ft | 277 kts | 1° |
| 2026-04-30 11:25 | -23.06145 | -53.64623 | 16000 ft | 277 kts | 1° |
| 2026-04-30 11:26 | -23.01680 | -53.64144 | 16000 ft | 277 kts | 1° |
| 2026-04-30 11:26 | -23.00404 | -53.64007 | 16000 ft | 277 kts | 1° |
| 2026-04-30 11:26 | -22.98490 | -53.63802 | 16000 ft | 277 kts | 1° |
| 2026-04-30 11:27 | -22.96577 | -53.63597 | 16000 ft | 277 kts | 1° |
| 2026-04-30 11:27 | -22.94664 | -53.63392 | 16000 ft | 277 kts | 1° |
| 2026-04-30 11:27 | -22.92753 | -53.63188 | 16000 ft | 277 kts | 1° |
| 2026-04-30 11:27 | -22.90836 | -53.62983 | 16000 ft | 277 kts | 1° |
| 2026-04-30 11:28 | -22.87008 | -53.62573 | 16000 ft | 277 kts | 1° |
| 2026-04-30 11:28 | -22.85094 | -53.62368 | 16000 ft | 277 kts | 1° |
| 2026-04-30 11:28 | -22.83179 | -53.62164 | 16000 ft | 277 kts | 1° |
| 2026-04-30 11:29 | -22.81266 | -53.61959 | 16000 ft | 277 kts | 1° |
| 2026-04-30 11:29 | -22.79354 | -53.61755 | 16000 ft | 277 kts | 1° |
| 2026-04-30 11:29 | -22.75526 | -53.61346 | 16000 ft | 277 kts | 1° |
| 2026-04-30 11:30 | -22.71700 | -53.60938 | 16000 ft | 277 kts | 1° |
| 2026-04-30 11:30 | -22.69786 | -53.60734 | 16000 ft | 277 kts | 1° |
| 2026-04-30 11:30 | -22.67872 | -53.60530 | 16000 ft | 277 kts | 1° |
| 2026-04-30 11:31 | -22.65958 | -53.60325 | 16000 ft | 277 kts | 1° |
| 2026-04-30 11:31 | -22.64045 | -53.60122 | 16000 ft | 277 kts | 1° |
| 2026-04-30 11:31 | -22.62131 | -53.59918 | 16000 ft | 277 kts | 1° |
| 2026-04-30 11:31 | -22.60217 | -53.59714 | 16000 ft | 277 kts | 1° |
| 2026-04-30 11:32 | -22.58304 | -53.59510 | 16000 ft | 277 kts | 1° |
| 2026-04-30 11:32 | -22.55753 | -53.59238 | 16000 ft | 277 kts | 1° |
| 2026-04-30 11:32 | -22.54477 | -53.59102 | 16000 ft | 277 kts | 1° |
| 2026-04-30 11:33 | -22.50651 | -53.58695 | 16000 ft | 277 kts | 1° |
| 2026-04-30 11:33 | -22.48737 | -53.58492 | 16000 ft | 277 kts | 1° |
| 2026-04-30 11:33 | -22.46823 | -53.58288 | 16000 ft | 277 kts | 1° |
| 2026-04-30 11:33 | -22.44909 | -53.58085 | 16000 ft | 277 kts | 1° |
| 2026-04-30 11:34 | -22.42996 | -53.57882 | 16000 ft | 277 kts | 1° |
| 2026-04-30 11:34 | -22.41083 | -53.57678 | 16000 ft | 277 kts | 1° |
| 2026-04-30 11:34 | -22.39169 | -53.57475 | 16000 ft | 277 kts | 1° |
| 2026-04-30 11:34 | -22.37255 | -53.57272 | 16000 ft | 277 kts | 1° |
| 2026-04-30 11:35 | -22.35342 | -53.57069 | 16000 ft | 277 kts | 1° |
| 2026-04-30 11:35 | -22.33428 | -53.56866 | 16000 ft | 277 kts | 1° |
| 2026-04-30 11:35 | -22.31514 | -53.56663 | 16000 ft | 277 kts | 1° |
| 2026-04-30 11:35 | -22.29602 | -53.56460 | 16000 ft | 277 kts | 1° |
| 2026-04-30 11:36 | -22.27687 | -53.56257 | 16000 ft | 277 kts | 1° |
| 2026-04-30 11:36 | -22.25774 | -53.56054 | 16000 ft | 277 kts | 1° |
| 2026-04-30 11:36 | -22.23861 | -53.55851 | 16000 ft | 277 kts | 1° |
| 2026-04-30 11:36 | -22.21947 | -53.55648 | 16000 ft | 277 kts | 1° |
| 2026-04-30 11:37 | -22.20035 | -53.55446 | 16000 ft | 277 kts | 1° |
| 2026-04-30 11:37 | -22.17482 | -53.55175 | 16000 ft | 277 kts | 1° |
| 2026-04-30 11:37 | -22.16207 | -53.55041 | 16000 ft | 277 kts | 1° |
| 2026-04-30 11:37 | -22.14293 | -53.54838 | 16000 ft | 277 kts | 1° |
| 2026-04-30 11:38 | -22.12380 | -53.54636 | 16000 ft | 277 kts | 1° |
| 2026-04-30 11:38 | -22.10465 | -53.54433 | 16000 ft | 277 kts | 1° |
| 2026-04-30 11:38 | -22.08553 | -53.54231 | 16000 ft | 277 kts | 1° |
| 2026-04-30 11:38 | -22.06640 | -53.54029 | 16000 ft | 277 kts | 1° |
| 2026-04-30 11:39 | -22.04725 | -53.53826 | 16000 ft | 277 kts | 1° |
| 2026-04-30 11:39 | -22.02812 | -53.53624 | 16000 ft | 277 kts | 1° |
| 2026-04-30 11:39 | -22.00898 | -53.53422 | 16000 ft | 277 kts | 1° |
| 2026-04-30 11:39 | -21.98985 | -53.53220 | 16000 ft | 277 kts | 1° |
| 2026-04-30 11:40 | -21.97072 | -53.53018 | 16000 ft | 277 kts | 1° |
| 2026-04-30 11:40 | -21.95158 | -53.52816 | 16000 ft | 277 kts | 1° |
| 2026-04-30 11:40 | -21.93245 | -53.52614 | 16000 ft | 277 kts | 1° |
| 2026-04-30 11:40 | -21.91333 | -53.52412 | 16000 ft | 277 kts | 1° |
| 2026-04-30 11:41 | -21.89417 | -53.52210 | 16000 ft | 277 kts | 1° |
| 2026-04-30 11:41 | -21.87504 | -53.52009 | 16000 ft | 277 kts | 1° |
| 2026-04-30 11:41 | -21.85590 | -53.51807 | 16000 ft | 277 kts | 1° |
| 2026-04-30 11:41 | -21.83677 | -53.51605 | 16000 ft | 277 kts | 1° |
| 2026-04-30 11:42 | -21.81764 | -53.51404 | 15996 ft | 277 kts | 0° |
| 2026-04-30 11:42 | -21.79841 | -53.51201 | 15989 ft | 279 kts | 1° |
| 2026-04-30 11:42 | -21.77926 | -53.50994 | 15989 ft | 275 kts | 1° |
| 2026-04-30 11:42 | -21.76023 | -53.50792 | 15997 ft | 276 kts | 1° |
| 2026-04-30 11:43 | -21.74110 | -53.50592 | 16000 ft | 277 kts | 0° |
| 2026-04-30 11:43 | -21.72198 | -53.50392 | 16000 ft | 277 kts | 0° |
| 2026-04-30 11:43 | -21.70285 | -53.50192 | 16000 ft | 277 kts | 0° |
| 2026-04-30 11:43 | -21.68372 | -53.49992 | 16000 ft | 277 kts | 0° |
| 2026-04-30 11:44 | -21.66460 | -53.49792 | 16000 ft | 277 kts | 0° |
| 2026-04-30 11:44 | -21.64546 | -53.49591 | 16000 ft | 277 kts | 1° |
| 2026-04-30 11:44 | -21.62632 | -53.49391 | 16000 ft | 277 kts | 1° |
| 2026-04-30 11:44 | -21.60719 | -53.49190 | 16000 ft | 277 kts | 1° |
| 2026-04-30 11:45 | -21.58806 | -53.48989 | 16000 ft | 277 kts | 1° |
| 2026-04-30 11:45 | -21.56892 | -53.48788 | 16000 ft | 277 kts | 1° |
| 2026-04-30 11:45 | -21.54979 | -53.48587 | 16000 ft | 277 kts | 1° |
| 2026-04-30 11:45 | -21.53066 | -53.48386 | 16000 ft | 277 kts | 1° |
| 2026-04-30 11:46 | -21.51152 | -53.48186 | 16000 ft | 277 kts | 1° |
| 2026-04-30 11:46 | -21.49239 | -53.47985 | 16000 ft | 277 kts | 1° |
| 2026-04-30 11:46 | -21.47350 | -53.48058 | 15994 ft | 269 kts | 342° |
| 2026-04-30 11:46 | -21.45711 | -53.48919 | 16005 ft | 262 kts | 320° |
| 2026-04-30 11:47 | -21.44365 | -53.50210 | 16006 ft | 260 kts | 310° |
| 2026-04-30 11:47 | -21.43185 | -53.51662 | 16002 ft | 258 kts | 306° |
| 2026-04-30 11:47 | -21.42799 | -53.52182 | 16002 ft | 258 kts | 305° |
| 2026-04-30 11:48 | -21.42122 | -53.53136 | 16001 ft | 257 kts | 304° |
| 2026-04-30 11:48 | -21.41073 | -53.54681 | 16000 ft | 257 kts | 303° |
| 2026-04-30 11:48 | -21.40047 | -53.56242 | 16000 ft | 256 kts | 302° |
| 2026-04-30 11:48 | -21.39033 | -53.57812 | 16003 ft | 257 kts | 302° |
| 2026-04-30 11:49 | -21.38016 | -53.59402 | 16002 ft | 261 kts | 301° |
| 2026-04-30 11:49 | -21.36992 | -53.61014 | 16002 ft | 263 kts | 301° |
| 2026-04-30 11:49 | -21.35963 | -53.62638 | 16001 ft | 264 kts | 301° |
| 2026-04-30 11:49 | -21.34931 | -53.64269 | 16001 ft | 265 kts | 301° |
| 2026-04-30 11:50 | -21.33897 | -53.65905 | 16000 ft | 266 kts | 301° |
| 2026-04-30 11:50 | -21.32859 | -53.67548 | 16000 ft | 267 kts | 301° |
| 2026-04-30 11:50 | -21.31821 | -53.69192 | 16000 ft | 267 kts | 301° |
| 2026-04-30 11:50 | -21.30783 | -53.70837 | 16000 ft | 267 kts | 301° |
| 2026-04-30 11:51 | -21.29743 | -53.72484 | 16000 ft | 267 kts | 301° |
| 2026-04-30 11:51 | -21.28703 | -53.74131 | 16000 ft | 267 kts | 301° |
| 2026-04-30 11:51 | -21.27662 | -53.75779 | 16000 ft | 268 kts | 301° |
| 2026-04-30 11:51 | -21.26621 | -53.77429 | 16000 ft | 268 kts | 301° |
| 2026-04-30 11:52 | -21.25581 | -53.79075 | 16000 ft | 268 kts | 301° |
| 2026-04-30 11:52 | -21.24538 | -53.80726 | 16000 ft | 268 kts | 301° |
| 2026-04-30 11:52 | -21.23497 | -53.82373 | 16000 ft | 268 kts | 301° |
| 2026-04-30 11:52 | -21.22455 | -53.84022 | 16000 ft | 268 kts | 301° |
| 2026-04-30 11:53 | -21.21413 | -53.85670 | 16000 ft | 268 kts | 301° |
| 2026-04-30 11:53 | -21.20370 | -53.87319 | 16000 ft | 268 kts | 301° |
| 2026-04-30 11:53 | -21.19328 | -53.88966 | 16000 ft | 268 kts | 301° |
| 2026-04-30 11:53 | -21.18286 | -53.90614 | 16000 ft | 268 kts | 301° |
| 2026-04-30 11:54 | -21.17242 | -53.92263 | 16000 ft | 268 kts | 301° |
| 2026-04-30 11:54 | -21.16200 | -53.93910 | 16000 ft | 268 kts | 301° |
| 2026-04-30 11:54 | -21.15157 | -53.95557 | 16000 ft | 268 kts | 301° |
| 2026-04-30 11:54 | -21.14113 | -53.97204 | 16000 ft | 268 kts | 301° |
| 2026-04-30 11:55 | -21.13070 | -53.98851 | 16000 ft | 268 kts | 301° |
| 2026-04-30 11:55 | -21.12027 | -54.00497 | 16000 ft | 268 kts | 301° |
| 2026-04-30 11:55 | -21.10983 | -54.02143 | 16000 ft | 268 kts | 301° |
| 2026-04-30 11:55 | -21.09939 | -54.03789 | 16000 ft | 268 kts | 301° |
| 2026-04-30 11:56 | -21.08895 | -54.05435 | 16000 ft | 268 kts | 301° |
| 2026-04-30 11:56 | -21.07850 | -54.07081 | 16000 ft | 268 kts | 301° |
| 2026-04-30 11:56 | -21.06806 | -54.08726 | 16000 ft | 268 kts | 301° |
| 2026-04-30 11:56 | -21.05762 | -54.10372 | 16000 ft | 268 kts | 301° |
| 2026-04-30 11:57 | -21.04717 | -54.12016 | 16000 ft | 268 kts | 301° |
| 2026-04-30 11:57 | -21.03672 | -54.13661 | 16000 ft | 268 kts | 301° |
| 2026-04-30 11:57 | -21.02627 | -54.15306 | 16000 ft | 268 kts | 301° |
| 2026-04-30 11:57 | -21.01582 | -54.16950 | 16000 ft | 268 kts | 301° |
| 2026-04-30 11:58 | -21.00536 | -54.18594 | 16000 ft | 268 kts | 301° |
| 2026-04-30 11:58 | -20.99490 | -54.20239 | 16000 ft | 268 kts | 301° |
| 2026-04-30 11:58 | -20.98446 | -54.21881 | 16000 ft | 268 kts | 301° |
| 2026-04-30 11:58 | -20.97399 | -54.23526 | 16000 ft | 268 kts | 301° |
| 2026-04-30 11:59 | -20.96353 | -54.25168 | 16000 ft | 268 kts | 301° |
| 2026-04-30 11:59 | -20.95307 | -54.26811 | 16000 ft | 268 kts | 301° |
| 2026-04-30 11:59 | -20.94261 | -54.28454 | 16000 ft | 268 kts | 301° |
| 2026-04-30 11:59 | -20.93214 | -54.30097 | 16000 ft | 268 kts | 301° |
| 2026-04-30 12:00 | -20.92167 | -54.31740 | 16000 ft | 268 kts | 301° |
| 2026-04-30 12:00 | -20.91119 | -54.33383 | 16000 ft | 268 kts | 301° |
| 2026-04-30 12:00 | -20.90071 | -54.35026 | 15962 ft | 269 kts | 301° |
| 2026-04-30 12:00 | -20.89009 | -54.36693 | 15687 ft | 274 kts | 302° |
| 2026-04-30 12:01 | -20.87947 | -54.38357 | 15316 ft | 267 kts | 302° |
| 2026-04-30 12:01 | -20.86923 | -54.39958 | 14938 ft | 257 kts | 302° |
| 2026-04-30 12:01 | -20.85927 | -54.41514 | 14561 ft | 252 kts | 301° |
| 2026-04-30 12:01 | -20.84948 | -54.43042 | 14178 ft | 247 kts | 302° |
| 2026-04-30 12:02 | -20.83996 | -54.44551 | 13814 ft | 245 kts | 301° |
| 2026-04-30 12:02 | -20.83045 | -54.46044 | 13439 ft | 242 kts | 301° |
| 2026-04-30 12:02 | -20.82103 | -54.47516 | 13064 ft | 239 kts | 301° |
| 2026-04-30 12:02 | -20.81168 | -54.48975 | 12689 ft | 237 kts | 301° |
| 2026-04-30 12:03 | -20.80241 | -54.50422 | 12314 ft | 236 kts | 301° |
| 2026-04-30 12:03 | -20.78408 | -54.53284 | 11564 ft | 232 kts | 301° |
| 2026-04-30 12:03 | -20.77501 | -54.54701 | 11190 ft | 231 kts | 301° |
| 2026-04-30 12:04 | -20.76601 | -54.56108 | 10815 ft | 229 kts | 301° |
| 2026-04-30 12:04 | -20.75705 | -54.57506 | 10440 ft | 228 kts | 301° |
| 2026-04-30 12:04 | -20.74816 | -54.58895 | 10066 ft | 226 kts | 301° |
| 2026-04-30 12:04 | -20.73931 | -54.60276 | 9691 ft | 225 kts | 301° |
| 2026-04-30 12:05 | -20.73052 | -54.61648 | 9316 ft | 224 kts | 301° |
| 2026-04-30 12:05 | -20.72178 | -54.63012 | 8942 ft | 222 kts | 301° |
| 2026-04-30 12:05 | -20.71308 | -54.64369 | 8567 ft | 221 kts | 301° |
| 2026-04-30 12:05 | -20.70444 | -54.65717 | 8193 ft | 220 kts | 301° |
| 2026-04-30 12:06 | -20.69589 | -54.67050 | 7816 ft | 216 kts | 301° |
| 2026-04-30 12:06 | -20.68751 | -54.68356 | 7440 ft | 212 kts | 301° |
| 2026-04-30 12:06 | -20.67924 | -54.69645 | 7065 ft | 210 kts | 301° |
| 2026-04-30 12:06 | -20.67104 | -54.70923 | 6690 ft | 208 kts | 301° |
| 2026-04-30 12:07 | -20.66292 | -54.72193 | 6315 ft | 207 kts | 303° |
| 2026-04-30 12:07 | -20.65481 | -54.73466 | 5939 ft | 208 kts | 304° |
| 2026-04-30 12:07 | -20.64661 | -54.74745 | 5563 ft | 210 kts | 305° |
| 2026-04-30 12:07 | -20.63828 | -54.76038 | 5189 ft | 213 kts | 305° |
| 2026-04-30 12:08 | -20.62981 | -54.77350 | 4815 ft | 216 kts | 304° |
| 2026-04-30 12:08 | -20.62128 | -54.78676 | 4442 ft | 218 kts | 304° |
| 2026-04-30 12:08 | -20.61099 | -54.79832 | 4141 ft | 211 kts | 328° |
| 2026-04-30 12:08 | -20.59845 | -54.80159 | 4117 ft | 176 kts | 2° |
| 2026-04-30 12:09 | -20.58762 | -54.79636 | 4033 ft | 176 kts | 40° |
| 2026-04-30 12:09 | -20.57955 | -54.78661 | 3943 ft | 173 kts | 52° |
| 2026-04-30 12:09 | -20.57259 | -54.77648 | 3827 ft | 166 kts | 55° |
| 2026-04-30 12:09 | -20.56626 | -54.76682 | 3861 ft | 143 kts | 54° |
| 2026-04-30 12:10 | -20.55971 | -54.75842 | 3825 ft | 151 kts | 48° |
| 2026-04-30 12:10 | -20.55252 | -54.75087 | 3840 ft | 140 kts | 42° |
| 2026-04-30 12:10 | -20.54505 | -54.74412 | 3809 ft | 141 kts | 39° |
| 2026-04-30 12:10 | -20.53755 | -54.73770 | 3583 ft | 136 kts | 38° |
| 2026-04-30 12:11 | -20.53027 | -54.73139 | 3286 ft | 133 kts | 39° |
| 2026-04-30 12:11 | -20.52335 | -54.72509 | 3028 ft | 130 kts | 41° |
| 2026-04-30 12:11 | -20.51668 | -54.71877 | 2833 ft | 128 kts | 42° |
| 2026-04-30 12:11 | -20.51016 | -54.71245 | 2674 ft | 126 kts | 42° |
| 2026-04-30 12:12 | -20.50366 | -54.70618 | 2526 ft | 126 kts | 42° |
| 2026-04-30 12:12 | -20.49719 | -54.69997 | 2369 ft | 125 kts | 42° |
| 2026-04-30 12:12 | -20.49074 | -54.69379 | 2204 ft | 124 kts | 42° |
| 2026-04-30 12:12 | -20.48448 | -54.68781 | 2028 ft | 117 kts | 42° |
| 2026-04-30 12:13 | -20.47854 | -54.68222 | 1866 ft | 111 kts | 41° |
| 2026-04-30 12:13 | -20.47414 | -54.67799 | 1839 ft | 35 kts | 47° |
| 2026-04-30 12:13 | -20.47241 | -54.67625 | 1839 ft | 36 kts | 41° |
| 2026-04-30 12:13 | -20.47082 | -54.67478 | 1839 ft | 35 kts | 43° |
| 2026-04-30 12:14 | -20.46827 | -54.67230 | 1839 ft | 57 kts | 42° |
| 2026-04-30 12:14 | -20.46515 | -54.66931 | 1839 ft | 65 kts | 41° |
| 2026-04-30 12:14 | -20.46261 | -54.66690 | 1839 ft | 37 kts | 41° |
| 2026-04-30 12:14 | -20.46193 | -54.66583 | 1839 ft | 2 kts | 129° |
| 2026-04-30 12:15 | -20.46199 | -54.66574 | 1839 ft | 14 kts | 127° |
| 2026-04-30 12:15 | -20.46267 | -54.66482 | 1839 ft | 15 kts | 130° |
| 2026-04-30 12:15 | -20.46324 | -54.66412 | 1839 ft | 5 kts | 136° |
| 2026-04-30 12:15 | -20.46360 | -54.66362 | 1839 ft | 14 kts | 135° |
| 2026-04-30 12:16 | -20.46371 | -54.66349 | 1839 ft | 0 kts | 132° |